sensor_id;sensor_type;location;lat;lon;timestamp;P1;durP1;ratioP1;P2;durP2;ratioP2
58685;SDS011;44465;53.206;-6.106;2024-01-15T14:50:23;1.63;;;1.08;;
58685;SDS011;44465;53.206;-6.106;2024-01-15T14:52:50;2.30;;;1.05;;
58685;SDS011;44465;53.206;-6.106;2024-01-15T14:55:15;1.30;;;1.00;;
58685;SDS011;44465;53.206;-6.106;2024-01-15T14:57:41;3.78;;;1.27;;
58685;SDS011;44465;53.206;-6.106;2024-01-15T15:00:06;3.47;;;0.98;;
58685;SDS011;44465;53.206;-6.106;2024-01-15T15:02:37;3.22;;;1.20;;
58685;SDS011;44465;53.206;-6.106;2024-01-15T15:05:03;1.92;;;0.95;;
58685;SDS011;44465;53.206;-6.106;2024-01-15T15:07:29;2.67;;;1.25;;
58685;SDS011;44465;53.206;-6.106;2024-01-15T15:09:54;3.08;;;0.82;;
58685;SDS011;44465;53.206;-6.106;2024-01-15T15:12:20;4.45;;;0.90;;
58685;SDS011;44465;53.206;-6.106;2024-01-15T15:14:45;2.28;;;0.98;;
58685;SDS011;44465;53.206;-6.106;2024-01-15T15:17:11;1.58;;;1.00;;
58685;SDS011;44465;53.206;-6.106;2024-01-15T15:19:37;1.30;;;0.70;;
58685;SDS011;44465;53.206;-6.106;2024-01-15T15:22:02;3.30;;;1.00;;
58685;SDS011;44465;53.206;-6.106;2024-01-15T15:24:28;2.40;;;1.02;;
58685;SDS011;44465;53.206;-6.106;2024-01-15T15:26:54;1.85;;;1.17;;
58685;SDS011;44465;53.206;-6.106;2024-01-15T15:29:19;2.55;;;1.20;;
58685;SDS011;44465;53.206;-6.106;2024-01-15T15:31:45;1.35;;;1.00;;
58685;SDS011;44465;53.206;-6.106;2024-01-15T15:34:11;2.78;;;1.05;;
58685;SDS011;44465;53.206;-6.106;2024-01-15T15:36:36;2.05;;;0.90;;
58685;SDS011;44465;53.206;-6.106;2024-01-15T15:39:02;2.50;;;1.30;;
58685;SDS011;44465;53.206;-6.106;2024-01-15T15:41:27;1.40;;;0.80;;
58685;SDS011;44465;53.206;-6.106;2024-01-15T15:43:53;2.97;;;1.00;;
58685;SDS011;44465;53.206;-6.106;2024-01-15T15:46:19;3.50;;;1.15;;
58685;SDS011;44465;53.206;-6.106;2024-01-15T15:48:45;2.70;;;1.17;;
58685;SDS011;44465;53.206;-6.106;2024-01-15T15:51:10;2.42;;;1.20;;
58685;SDS011;44465;53.206;-6.106;2024-01-15T15:53:36;3.03;;;1.20;;
58685;SDS011;44465;53.206;-6.106;2024-01-15T15:56:01;1.98;;;1.05;;
58685;SDS011;44465;53.206;-6.106;2024-01-15T15:58:27;1.77;;;1.20;;
58685;SDS011;44465;53.206;-6.106;2024-01-15T16:00:53;2.15;;;0.95;;
58685;SDS011;44465;53.206;-6.106;2024-01-15T16:03:19;2.17;;;0.93;;
58685;SDS011;44465;53.206;-6.106;2024-01-15T16:05:44;1.92;;;1.27;;
58685;SDS011;44465;53.206;-6.106;2024-01-15T16:08:10;2.20;;;0.88;;
58685;SDS011;44465;53.206;-6.106;2024-01-15T16:10:35;3.75;;;1.45;;
58685;SDS011;44465;53.206;-6.106;2024-01-15T16:13:01;4.20;;;1.38;;
58685;SDS011;44465;53.206;-6.106;2024-01-15T16:15:27;1.63;;;1.08;;
58685;SDS011;44465;53.206;-6.106;2024-01-15T16:17:53;2.85;;;1.15;;
58685;SDS011;44465;53.206;-6.106;2024-01-15T16:20:19;1.42;;;1.08;;
58685;SDS011;44465;53.206;-6.106;2024-01-15T16:22:45;2.30;;;1.17;;
58685;SDS011;44465;53.206;-6.106;2024-01-15T16:25:12;1.60;;;1.10;;
58685;SDS011;44465;53.206;-6.106;2024-01-15T16:27:38;1.37;;;1.10;;
58685;SDS011;44465;53.206;-6.106;2024-01-15T16:30:05;1.35;;;1.10;;
58685;SDS011;44465;53.206;-6.106;2024-01-15T16:32:32;3.35;;;1.40;;
58685;SDS011;44465;53.206;-6.106;2024-01-15T16:34:57;4.35;;;1.15;;
58685;SDS011;44465;53.206;-6.106;2024-01-15T16:37:23;3.67;;;1.55;;
58685;SDS011;44465;53.206;-6.106;2024-01-15T16:39:48;2.30;;;1.15;;
58685;SDS011;44465;53.206;-6.106;2024-01-15T16:42:14;4.72;;;1.50;;
58685;SDS011;44465;53.206;-6.106;2024-01-15T16:44:39;3.10;;;1.42;;
58685;SDS011;44465;53.206;-6.106;2024-01-15T16:47:05;2.45;;;1.60;;
58685;SDS011;44465;53.206;-6.106;2024-01-15T16:49:30;3.45;;;1.48;;
58685;SDS011;44465;53.206;-6.106;2024-01-15T16:51:56;3.00;;;1.38;;
58685;SDS011;44465;53.206;-6.106;2024-01-15T16:54:22;3.95;;;1.48;;
58685;SDS011;44465;53.206;-6.106;2024-01-15T16:56:49;3.75;;;1.35;;
58685;SDS011;44465;53.206;-6.106;2024-01-15T16:59:15;3.17;;;1.40;;
58685;SDS011;44465;53.206;-6.106;2024-01-15T17:01:41;2.13;;;1.30;;
58685;SDS011;44465;53.206;-6.106;2024-01-15T17:04:06;2.40;;;1.50;;
58685;SDS011;44465;53.206;-6.106;2024-01-15T17:06:32;3.75;;;1.17;;
58685;SDS011;44465;53.206;-6.106;2024-01-15T17:08:58;3.10;;;1.45;;
58685;SDS011;44465;53.206;-6.106;2024-01-15T17:11:23;1.95;;;1.38;;
58685;SDS011;44465;53.206;-6.106;2024-01-15T17:13:49;2.03;;;1.42;;
58685;SDS011;44465;53.206;-6.106;2024-01-15T17:16:16;3.33;;;1.67;;
58685;SDS011;44465;53.206;-6.106;2024-01-15T17:18:41;3.40;;;1.63;;
58685;SDS011;44465;53.206;-6.106;2024-01-15T17:21:07;2.95;;;1.48;;
58685;SDS011;44465;53.206;-6.106;2024-01-15T17:23:33;2.38;;;1.75;;
58685;SDS011;44465;53.206;-6.106;2024-01-15T17:25:58;2.78;;;1.92;;
58685;SDS011;44465;53.206;-6.106;2024-01-15T17:28:24;5.18;;;2.25;;
58685;SDS011;44465;53.206;-6.106;2024-01-15T17:30:51;3.33;;;1.98;;
58685;SDS011;44465;53.206;-6.106;2024-01-15T17:33:16;4.68;;;2.88;;
58685;SDS011;44465;53.206;-6.106;2024-01-15T17:35:51;4.45;;;2.10;;
58685;SDS011;44465;53.206;-6.106;2024-01-15T17:38:18;3.95;;;1.98;;
58685;SDS011;44465;53.206;-6.106;2024-01-15T17:40:44;4.35;;;2.42;;
58685;SDS011;44465;53.206;-6.106;2024-01-15T17:43:10;3.17;;;2.25;;
58685;SDS011;44465;53.206;-6.106;2024-01-15T17:45:35;4.10;;;2.88;;
58685;SDS011;44465;53.206;-6.106;2024-01-15T17:48:01;5.05;;;2.47;;
58685;SDS011;44465;53.206;-6.106;2024-01-15T17:50:26;2.53;;;2.33;;
58685;SDS011;44465;53.206;-6.106;2024-01-15T17:52:52;3.15;;;2.30;;
58685;SDS011;44465;53.206;-6.106;2024-01-15T17:55:17;3.33;;;2.40;;
58685;SDS011;44465;53.206;-6.106;2024-01-15T17:57:43;4.13;;;2.58;;
58685;SDS011;44465;53.206;-6.106;2024-01-15T18:00:09;5.55;;;2.55;;
58685;SDS011;44465;53.206;-6.106;2024-01-15T18:02:35;3.47;;;2.40;;
58685;SDS011;44465;53.206;-6.106;2024-01-15T18:05:00;3.53;;;2.50;;
58685;SDS011;44465;53.206;-6.106;2024-01-15T18:07:26;3.33;;;2.50;;
58685;SDS011;44465;53.206;-6.106;2024-01-15T18:09:51;3.20;;;2.60;;
58685;SDS011;44465;53.206;-6.106;2024-01-15T18:12:17;3.97;;;2.40;;
58685;SDS011;44465;53.206;-6.106;2024-01-15T18:14:42;4.68;;;2.40;;
58685;SDS011;44465;53.206;-6.106;2024-01-15T18:17:08;8.40;;;3.50;;
58685;SDS011;44465;53.206;-6.106;2024-01-15T18:19:34;6.55;;;3.03;;
58685;SDS011;44465;53.206;-6.106;2024-01-15T18:21:59;4.72;;;3.08;;
58685;SDS011;44465;53.206;-6.106;2024-01-15T18:24:25;4.45;;;2.40;;
58685;SDS011;44465;53.206;-6.106;2024-01-15T18:26:50;4.03;;;2.97;;
58685;SDS011;44465;53.206;-6.106;2024-01-15T18:29:17;6.32;;;2.70;;
58685;SDS011;44465;53.206;-6.106;2024-01-15T18:31:46;7.18;;;2.88;;
58685;SDS011;44465;53.206;-6.106;2024-01-15T18:34:15;5.50;;;3.30;;
58685;SDS011;44465;53.206;-6.106;2024-01-15T18:36:41;5.60;;;2.63;;
58685;SDS011;44465;53.206;-6.106;2024-01-15T18:39:10;7.60;;;2.75;;
58685;SDS011;44465;53.206;-6.106;2024-01-15T18:41:36;3.97;;;2.40;;
58685;SDS011;44465;53.206;-6.106;2024-01-15T18:44:02;6.45;;;3.20;;
58685;SDS011;44465;53.206;-6.106;2024-01-15T18:46:27;6.60;;;2.70;;
58685;SDS011;44465;53.206;-6.106;2024-01-15T18:48:53;4.20;;;3.42;;
58685;SDS011;44465;53.206;-6.106;2024-01-15T18:51:20;7.32;;;3.38;;
58685;SDS011;44465;53.206;-6.106;2024-01-15T18:53:46;5.53;;;3.60;;
58685;SDS011;44465;53.206;-6.106;2024-01-15T18:56:12;4.30;;;3.78;;
58685;SDS011;44465;53.206;-6.106;2024-01-15T18:58:38;6.47;;;3.53;;
58685;SDS011;44465;53.206;-6.106;2024-01-15T19:01:07;5.30;;;3.33;;
58685;SDS011;44465;53.206;-6.106;2024-01-15T19:03:33;7.72;;;3.60;;
58685;SDS011;44465;53.206;-6.106;2024-01-15T19:05:58;5.38;;;3.67;;
58685;SDS011;44465;53.206;-6.106;2024-01-15T19:08:24;3.90;;;3.25;;
58685;SDS011;44465;53.206;-6.106;2024-01-15T19:10:52;6.15;;;3.42;;
58685;SDS011;44465;53.206;-6.106;2024-01-15T19:13:23;4.55;;;3.10;;
58685;SDS011;44465;53.206;-6.106;2024-01-15T19:15:50;6.30;;;3.33;;
58685;SDS011;44465;53.206;-6.106;2024-01-15T19:18:16;4.45;;;3.08;;
58685;SDS011;44465;53.206;-6.106;2024-01-15T19:20:42;6.80;;;3.35;;
58685;SDS011;44465;53.206;-6.106;2024-01-15T19:23:09;9.05;;;4.25;;
58685;SDS011;44465;53.206;-6.106;2024-01-15T19:25:35;9.13;;;5.18;;
58685;SDS011;44465;53.206;-6.106;2024-01-15T19:28:01;9.60;;;5.15;;
58685;SDS011;44465;53.206;-6.106;2024-01-15T19:30:28;8.63;;;4.70;;
58685;SDS011;44465;53.206;-6.106;2024-01-15T19:32:56;7.30;;;3.83;;
58685;SDS011;44465;53.206;-6.106;2024-01-15T19:35:21;19.98;;;5.28;;
58685;SDS011;44465;53.206;-6.106;2024-01-15T19:37:46;15.07;;;4.47;;
58685;SDS011;44465;53.206;-6.106;2024-01-15T19:40:13;13.07;;;4.40;;
58685;SDS011;44465;53.206;-6.106;2024-01-15T19:42:40;7.28;;;4.45;;
58685;SDS011;44465;53.206;-6.106;2024-01-15T19:45:05;6.60;;;3.88;;
58685;SDS011;44465;53.206;-6.106;2024-01-15T19:47:31;11.05;;;4.57;;
58685;SDS011;44465;53.206;-6.106;2024-01-15T19:49:57;6.78;;;3.60;;
58685;SDS011;44465;53.206;-6.106;2024-01-15T19:52:23;7.15;;;3.70;;
58685;SDS011;44465;53.206;-6.106;2024-01-15T19:54:48;5.88;;;3.60;;
58685;SDS011;44465;53.206;-6.106;2024-01-15T19:57:14;7.65;;;3.92;;
58685;SDS011;44465;53.206;-6.106;2024-01-15T19:59:39;7.00;;;3.38;;
58685;SDS011;44465;53.206;-6.106;2024-01-15T20:02:05;12.27;;;4.22;;
58685;SDS011;44465;53.206;-6.106;2024-01-15T20:04:32;6.13;;;3.60;;
58685;SDS011;44465;53.206;-6.106;2024-01-15T20:06:58;8.18;;;3.38;;
58685;SDS011;44465;53.206;-6.106;2024-01-15T20:09:23;4.80;;;3.10;;
58685;SDS011;44465;53.206;-6.106;2024-01-15T20:11:49;6.72;;;3.58;;
58685;SDS011;44465;53.206;-6.106;2024-01-15T20:14:16;6.75;;;3.33;;
58685;SDS011;44465;53.206;-6.106;2024-01-15T20:16:41;8.13;;;3.60;;
58685;SDS011;44465;53.206;-6.106;2024-01-15T20:19:07;3.60;;;2.67;;
58685;SDS011;44465;53.206;-6.106;2024-01-15T20:21:33;5.15;;;2.90;;
58685;SDS011;44465;53.206;-6.106;2024-01-15T20:24:00;4.93;;;3.00;;
58685;SDS011;44465;53.206;-6.106;2024-01-15T20:26:26;4.47;;;2.38;;
58685;SDS011;44465;53.206;-6.106;2024-01-15T20:28:52;4.97;;;3.17;;
58685;SDS011;44465;53.206;-6.106;2024-01-15T20:31:18;5.55;;;3.50;;
58685;SDS011;44465;53.206;-6.106;2024-01-15T20:33:43;7.90;;;3.15;;
58685;SDS011;44465;53.206;-6.106;2024-01-15T20:36:09;3.08;;;2.60;;
58685;SDS011;44465;53.206;-6.106;2024-01-15T20:38:37;4.68;;;3.25;;
58685;SDS011;44465;53.206;-6.106;2024-01-15T20:41:04;7.53;;;3.00;;
58685;SDS011;44465;53.206;-6.106;2024-01-15T20:43:31;7.28;;;3.15;;
58685;SDS011;44465;53.206;-6.106;2024-01-15T20:45:59;6.53;;;2.83;;
58685;SDS011;44465;53.206;-6.106;2024-01-15T20:48:25;5.70;;;2.80;;
58685;SDS011;44465;53.206;-6.106;2024-01-15T20:50:52;7.20;;;3.38;;
58685;SDS011;44465;53.206;-6.106;2024-01-15T20:53:18;10.10;;;3.10;;
58685;SDS011;44465;53.206;-6.106;2024-01-15T20:55:44;9.77;;;3.47;;
58685;SDS011;44465;53.206;-6.106;2024-01-15T20:58:09;13.00;;;3.65;;
58685;SDS011;44465;53.206;-6.106;2024-01-15T21:00:35;6.20;;;3.00;;
58685;SDS011;44465;53.206;-6.106;2024-01-15T21:03:01;12.23;;;3.40;;
58685;SDS011;44465;53.206;-6.106;2024-01-15T21:05:27;5.80;;;3.20;;
58685;SDS011;44465;53.206;-6.106;2024-01-15T21:07:54;10.20;;;3.15;;
58685;SDS011;44465;53.206;-6.106;2024-01-15T21:10:20;7.60;;;3.50;;
58685;SDS011;44465;53.206;-6.106;2024-01-15T21:12:46;8.60;;;3.30;;
58685;SDS011;44465;53.206;-6.106;2024-01-15T21:15:12;7.78;;;3.58;;
58685;SDS011;44465;53.206;-6.106;2024-01-15T21:17:38;23.67;;;13.77;;
58685;SDS011;44465;53.206;-6.106;2024-01-15T21:20:04;11.45;;;7.50;;
58685;SDS011;44465;53.206;-6.106;2024-01-15T21:22:36;13.30;;;7.55;;
58685;SDS011;44465;53.206;-6.106;2024-01-15T21:25:02;12.00;;;6.88;;
58685;SDS011;44465;53.206;-6.106;2024-01-15T21:27:28;12.30;;;7.03;;
58685;SDS011;44465;53.206;-6.106;2024-01-15T21:29:54;14.57;;;6.97;;
58685;SDS011;44465;53.206;-6.106;2024-01-15T21:32:20;14.10;;;7.20;;
58685;SDS011;44465;53.206;-6.106;2024-01-15T21:34:46;16.63;;;7.43;;
58685;SDS011;44465;53.206;-6.106;2024-01-15T21:37:12;14.68;;;7.35;;
58685;SDS011;44465;53.206;-6.106;2024-01-15T21:39:38;16.73;;;8.07;;
58685;SDS011;44465;53.206;-6.106;2024-01-15T21:42:03;22.08;;;8.43;;
58685;SDS011;44465;53.206;-6.106;2024-01-15T21:44:29;10.15;;;7.72;;
58685;SDS011;44465;53.206;-6.106;2024-01-15T21:46:55;10.75;;;6.93;;
58685;SDS011;44465;53.206;-6.106;2024-01-15T21:49:20;13.23;;;7.05;;
58685;SDS011;44465;53.206;-6.106;2024-01-15T21:51:45;12.68;;;6.65;;
58685;SDS011;44465;53.206;-6.106;2024-01-15T21:54:11;12.35;;;6.15;;
58685;SDS011;44465;53.206;-6.106;2024-01-15T21:56:36;13.95;;;7.53;;
58685;SDS011;44465;53.206;-6.106;2024-01-15T21:59:02;14.93;;;6.78;;
58685;SDS011;44465;53.206;-6.106;2024-01-15T22:01:28;16.67;;;6.65;;
58685;SDS011;44465;53.206;-6.106;2024-01-15T22:03:54;13.20;;;6.70;;
58685;SDS011;44465;53.206;-6.106;2024-01-15T22:06:19;16.75;;;7.38;;
58685;SDS011;44465;53.206;-6.106;2024-01-15T22:08:45;16.63;;;6.72;;
58685;SDS011;44465;53.206;-6.106;2024-01-15T22:11:10;23.77;;;7.38;;
58685;SDS011;44465;53.206;-6.106;2024-01-15T22:13:37;17.58;;;6.30;;
58685;SDS011;44465;53.206;-6.106;2024-01-15T22:18:29;16.58;;;6.13;;
58685;SDS011;44465;53.206;-6.106;2024-01-15T22:20:56;15.75;;;6.32;;
58685;SDS011;44465;53.206;-6.106;2024-01-15T22:23:22;16.50;;;6.28;;
58685;SDS011;44465;53.206;-6.106;2024-01-15T22:25:48;20.83;;;6.35;;
58685;SDS011;44465;53.206;-6.106;2024-01-15T22:28:13;17.02;;;5.95;;
58685;SDS011;44465;53.206;-6.106;2024-01-15T22:30:39;13.52;;;5.65;;
58685;SDS011;44465;53.206;-6.106;2024-01-15T22:33:04;16.73;;;5.40;;
58685;SDS011;44465;53.206;-6.106;2024-01-15T22:35:30;9.57;;;5.50;;
58685;SDS011;44465;53.206;-6.106;2024-01-15T22:37:56;11.95;;;5.60;;
58685;SDS011;44465;53.206;-6.106;2024-01-15T22:40:21;17.70;;;5.80;;
58685;SDS011;44465;53.206;-6.106;2024-01-15T22:42:47;11.00;;;5.55;;
58685;SDS011;44465;53.206;-6.106;2024-01-15T22:45:13;12.98;;;5.93;;
58685;SDS011;44465;53.206;-6.106;2024-01-15T22:47:39;15.65;;;5.50;;
58685;SDS011;44465;53.206;-6.106;2024-01-15T22:50:04;14.07;;;4.82;;
58685;SDS011;44465;53.206;-6.106;2024-01-15T22:52:31;16.00;;;5.05;;
58685;SDS011;44465;53.206;-6.106;2024-01-15T22:54:56;12.00;;;4.82;;
58685;SDS011;44465;53.206;-6.106;2024-01-15T22:57:22;10.43;;;4.35;;
58685;SDS011;44465;53.206;-6.106;2024-01-15T22:59:49;16.97;;;5.47;;
58685;SDS011;44465;53.206;-6.106;2024-01-15T23:02:15;11.20;;;4.50;;
58685;SDS011;44465;53.206;-6.106;2024-01-15T23:04:41;14.32;;;4.63;;
58685;SDS011;44465;53.206;-6.106;2024-01-15T23:07:07;11.60;;;4.60;;
58685;SDS011;44465;53.206;-6.106;2024-01-15T23:09:32;10.57;;;4.88;;
58685;SDS011;44465;53.206;-6.106;2024-01-15T23:11:58;9.02;;;3.97;;
58685;SDS011;44465;53.206;-6.106;2024-01-15T23:14:24;8.30;;;4.50;;
58685;SDS011;44465;53.206;-6.106;2024-01-15T23:16:49;10.65;;;4.40;;
58685;SDS011;44465;53.206;-6.106;2024-01-15T23:19:15;8.77;;;4.05;;
58685;SDS011;44465;53.206;-6.106;2024-01-15T23:21:41;10.15;;;4.40;;
58685;SDS011;44465;53.206;-6.106;2024-01-15T23:24:06;5.35;;;3.97;;
58685;SDS011;44465;53.206;-6.106;2024-01-15T23:26:33;11.60;;;4.07;;
58685;SDS011;44465;53.206;-6.106;2024-01-15T23:28:59;10.25;;;3.30;;
58685;SDS011;44465;53.206;-6.106;2024-01-15T23:31:27;6.05;;;3.80;;
58685;SDS011;44465;53.206;-6.106;2024-01-15T23:33:52;8.13;;;4.00;;
58685;SDS011;44465;53.206;-6.106;2024-01-15T23:36:19;6.82;;;3.63;;
58685;SDS011;44465;53.206;-6.106;2024-01-15T23:38:44;7.43;;;3.47;;
58685;SDS011;44465;53.206;-6.106;2024-01-15T23:41:17;7.20;;;3.80;;
58685;SDS011;44465;53.206;-6.106;2024-01-15T23:43:45;8.18;;;3.55;;
58685;SDS011;44465;53.206;-6.106;2024-01-15T23:46:13;6.50;;;3.70;;
58685;SDS011;44465;53.206;-6.106;2024-01-15T23:48:43;5.28;;;3.33;;
58685;SDS011;44465;53.206;-6.106;2024-01-15T23:51:10;7.13;;;3.80;;
58685;SDS011;44465;53.206;-6.106;2024-01-15T23:53:35;7.22;;;3.60;;
58685;SDS011;44465;53.206;-6.106;2024-01-15T23:56:02;8.30;;;3.50;;
58685;SDS011;44465;53.206;-6.106;2024-01-15T23:58:29;9.45;;;3.30;;
